Impacts TAF Board INFO
FOR SITUATIONAL AWARENESS. NOT TO BE USED FOR FLIGHT PLANNING PURPOSES.
IDs:

KLAX - Los Angeles Intl, CA, US

Issued at 0535 UTC 25 Feb 2018
Updated at 0537 UTC 25 Feb 2018
Potential Impact None Slight Moderate High
Time0453Z 25/06Z 25/07Z 25/08Z 25/09Z 25/10Z 25/11Z 25/12Z 25/13Z 25/14Z 25/15Z 25/16Z 25/17Z 25/18Z>>
Type OBS PRVL PRVL PRVL PRVL PRVL PRVL PRVL PRVL PRVL PRVL PRVL PRVL PRVL
VIS 10 >6 >6 >6 >6 >6 >6 >6 >6 >6 >6 >6 >6 >6
CIG -- -- -- -- -- -- -- -- -- -- -- -- -- --
Cover CLR SKC SKC SKC SKC SKC SKC SKC SKC SKC SKC SKC SKC SKC
FltCat VFR VFR VFR VFR VFR VFR VFR VFR VFR VFR VFR VFR VFR VFR
WX -- -- -- -- -- -- -- -- -- -- -- -- -- --
WDir 250 270 270 340 340 340 60 60 60 60 60 60 60 60
WSpd 7 7 7 8 8 8 4 4 4 4 4 4 4 4
WGst -- -- -- -- -- -- -- -- -- -- -- -- -- --

Raw TAF
KLAX 250535Z 2506/2612 27007KT P6SM SKC
  FM250800 34008KT P6SM SKC
  FM251100 06004KT P6SM SKC
  FM252000 26012KT P6SM SKC
  FM260400 27006KT P6SM SKC
  FM261000 11003KT P6SM SKC


Raw METAR
KLAX 250453Z 25007KT 10SM CLR 12/03 A3020 RMK AO2 SLP225 T01170033
KLAX 250353Z 25008KT 10SM CLR 12/03 A3021 RMK AO2 SLP230 T01220033
KLAX 250253Z 26013KT 10SM CLR 12/03 A3021 RMK AO2 SLP230 T01220028 55003

METAR Board
Radar Display
Forecast Discussion

FOR SITUATIONAL AWARENESS. NOT TO BE USED FOR FLIGHT PLANNING PURPOSES.